createdAt,value
2018-10-02T00:01:45.887Z,2.00
2018-10-02T00:04:13.811Z,2.10
2018-10-02T00:06:41.273Z,1.67
2018-10-02T00:09:10.379Z,2.00
2018-10-02T00:11:43.564Z,2.30
2018-10-02T00:14:16.679Z,1.97
2018-10-02T00:16:44.113Z,1.80
2018-10-02T00:19:11.726Z,1.97
2018-10-02T00:21:39.242Z,2.10
2018-10-02T00:24:06.845Z,2.10
2018-10-02T00:26:34.395Z,1.70
2018-10-02T00:29:01.810Z,1.73
2018-10-02T00:31:29.422Z,1.50
2018-10-02T00:33:56.806Z,1.90
2018-10-02T00:36:24.430Z,1.70
2018-10-02T00:38:51.880Z,1.53
2018-10-02T00:41:19.406Z,1.90
2018-10-02T00:43:46.862Z,1.90
2018-10-02T00:46:14.315Z,1.93
2018-10-02T00:48:41.781Z,1.57
2018-10-02T00:51:09.267Z,1.90
2018-10-02T00:53:36.780Z,1.60
2018-10-02T00:56:04.225Z,1.80
2018-10-02T00:58:31.795Z,1.43
2018-10-02T01:00:59.317Z,1.97
2018-10-02T01:03:26.841Z,1.97
2018-10-02T01:05:54.289Z,1.77
2018-10-02T01:08:21.818Z,1.70
2018-10-02T01:10:49.236Z,1.67
2018-10-02T01:13:16.779Z,1.90
2018-10-02T01:15:44.241Z,1.80
2018-10-02T01:18:11.741Z,2.00
2018-10-02T01:20:39.310Z,2.30
2018-10-02T01:23:06.777Z,1.90
2018-10-02T01:25:34.309Z,1.67
2018-10-02T01:28:01.741Z,1.60
2018-10-02T01:30:29.241Z,1.80
2018-10-02T01:32:56.746Z,1.90
2018-10-02T01:35:24.298Z,1.60
2018-10-02T01:37:51.698Z,1.80
2018-10-02T01:40:19.314Z,1.50
2018-10-02T01:42:46.789Z,1.60
2018-10-02T01:45:14.325Z,2.10
2018-10-02T01:47:41.746Z,2.00
2018-10-02T01:50:09.305Z,1.97
2018-10-02T01:52:36.793Z,1.90
2018-10-02T01:55:04.352Z,1.90
2018-10-02T01:57:31.970Z,2.43
2018-10-02T01:59:59.529Z,1.70
2018-10-02T02:02:27.086Z,2.40
2018-10-02T02:04:54.505Z,1.97
2018-10-02T02:07:21.994Z,1.80
2018-10-02T02:09:49.488Z,2.50
2018-10-02T02:12:16.909Z,1.80
2018-10-02T02:14:44.381Z,1.63
2018-10-02T02:17:11.829Z,2.00
2018-10-02T02:19:39.446Z,1.90
2018-10-02T02:22:06.965Z,1.90
2018-10-02T02:24:34.528Z,1.80
2018-10-02T02:27:02.032Z,1.90
2018-10-02T02:29:29.479Z,1.80
2018-10-02T02:31:56.887Z,2.10
2018-10-02T02:34:24.409Z,2.80
2018-10-02T02:36:51.917Z,1.77
2018-10-02T02:39:19.428Z,2.37
2018-10-02T02:41:47.018Z,1.70
2018-10-02T02:44:14.583Z,1.70
2018-10-02T02:46:42.030Z,1.70
2018-10-02T02:49:15.315Z,2.27
2018-10-02T02:51:42.805Z,1.70
2018-10-02T02:54:10.323Z,1.90
2018-10-02T02:56:37.758Z,2.07
2018-10-02T02:59:05.382Z,1.90
2018-10-02T03:01:32.929Z,1.70
2018-10-02T03:04:00.346Z,1.73
2018-10-02T03:06:27.884Z,2.07
2018-10-02T03:08:55.645Z,2.00
2018-10-02T03:11:23.149Z,2.37
2018-10-02T03:13:50.701Z,2.20
2018-10-02T03:16:18.345Z,1.80
2018-10-02T03:18:45.783Z,2.40
2018-10-02T03:21:13.322Z,2.07
2018-10-02T03:23:40.739Z,1.97
2018-10-02T03:26:08.242Z,2.00
2018-10-02T03:28:35.806Z,2.00
2018-10-02T03:31:03.582Z,2.30
2018-10-02T03:33:31.357Z,1.87
2018-10-02T03:35:58.909Z,2.27
2018-10-02T03:38:26.473Z,2.17
2018-10-02T03:40:53.922Z,2.20
2018-10-02T03:43:21.414Z,1.80
2018-10-02T03:45:48.808Z,1.90
2018-10-02T03:48:16.240Z,2.40
2018-10-02T03:50:43.702Z,2.10
2018-10-02T03:53:11.269Z,2.10
2018-10-02T03:55:38.821Z,1.80
2018-10-02T03:58:06.274Z,2.10
2018-10-02T04:00:33.802Z,2.20
2018-10-02T04:03:01.234Z,2.30
2018-10-02T04:05:28.769Z,2.37
2018-10-02T04:07:56.242Z,2.07
2018-10-02T04:10:23.749Z,2.30
2018-10-02T04:12:51.213Z,2.13
2018-10-02T04:15:18.758Z,2.00
2018-10-02T04:17:46.229Z,1.97
2018-10-02T04:20:13.790Z,1.63
2018-10-02T04:22:41.271Z,1.90
2018-10-02T04:25:08.681Z,2.07
2018-10-02T04:27:36.242Z,2.10
2018-10-02T04:30:04.541Z,2.00
2018-10-02T04:32:32.018Z,2.60
2018-10-02T04:34:59.450Z,2.23
2018-10-02T04:37:26.939Z,2.10
2018-10-02T04:39:54.441Z,2.00
2018-10-02T04:42:21.916Z,2.10
2018-10-02T04:44:49.342Z,2.20
2018-10-02T04:47:16.874Z,1.80
2018-10-02T04:49:44.403Z,2.27
2018-10-02T04:52:11.887Z,2.37
2018-10-02T04:54:39.302Z,2.10
2018-10-02T04:57:06.784Z,2.50
2018-10-02T04:59:34.240Z,2.23
2018-10-02T05:02:01.750Z,2.40
2018-10-02T05:04:29.260Z,2.10
2018-10-02T05:06:56.673Z,1.90
2018-10-02T05:09:24.130Z,1.93
2018-10-02T05:11:51.771Z,2.60
2018-10-02T05:14:19.299Z,2.20
2018-10-02T05:16:46.779Z,2.17
2018-10-02T05:19:14.278Z,2.03
2018-10-02T05:21:41.700Z,2.50
2018-10-02T05:24:09.220Z,2.10
2018-10-02T05:26:36.665Z,2.33
2018-10-02T05:29:04.100Z,2.10
2018-10-02T05:31:31.537Z,2.40
2018-10-02T05:33:58.975Z,2.30
2018-10-02T05:36:26.435Z,2.37
2018-10-02T05:38:53.913Z,2.13
2018-10-02T05:41:21.373Z,2.30
2018-10-02T05:43:48.828Z,2.83
2018-10-02T05:46:16.351Z,2.70
2018-10-02T05:48:43.794Z,2.53
2018-10-02T05:51:11.240Z,2.50
2018-10-02T05:53:38.689Z,2.70
2018-10-02T05:56:06.145Z,3.00
2018-10-02T05:58:33.608Z,3.03
2018-10-02T06:01:01.091Z,2.83
2018-10-02T06:03:28.603Z,2.80
2018-10-02T06:05:56.125Z,2.87
2018-10-02T06:08:23.579Z,2.70
2018-10-02T06:10:51.129Z,3.00
2018-10-02T06:13:18.537Z,2.73
2018-10-02T06:15:45.971Z,2.57
2018-10-02T06:18:13.458Z,3.00
2018-10-02T06:20:41.094Z,2.60
2018-10-02T06:23:08.510Z,3.00
2018-10-02T06:25:36.007Z,2.40
2018-10-02T06:28:03.432Z,2.93
2018-10-02T06:30:30.994Z,2.70
2018-10-02T06:32:58.486Z,2.90
2018-10-02T06:35:25.887Z,2.80
2018-10-02T06:37:53.435Z,2.80
2018-10-02T06:40:20.862Z,2.80
2018-10-02T06:42:48.340Z,3.50
2018-10-02T06:45:15.892Z,2.90
2018-10-02T06:47:43.456Z,3.10
2018-10-02T06:50:11.041Z,2.87
2018-10-02T06:52:38.817Z,3.10
2018-10-02T06:55:06.898Z,3.03
2018-10-02T06:57:34.537Z,2.77
2018-10-02T07:00:02.115Z,2.70
2018-10-02T07:02:29.603Z,2.97
2018-10-02T07:04:57.038Z,3.10
2018-10-02T07:07:24.650Z,3.30
2018-10-02T07:09:52.162Z,2.40
2018-10-02T07:12:19.734Z,2.63
2018-10-02T07:14:47.225Z,2.67
2018-10-02T07:17:14.670Z,2.70
2018-10-02T07:19:42.109Z,2.93
2018-10-02T07:22:09.570Z,2.97
2018-10-02T07:24:36.995Z,2.70
2018-10-02T07:27:05.092Z,2.50
2018-10-02T07:29:32.474Z,3.03
2018-10-02T07:32:00.011Z,2.53
2018-10-02T07:34:27.542Z,2.70
2018-10-02T07:36:55.030Z,2.67
2018-10-02T07:39:22.418Z,2.40
2018-10-02T07:41:49.975Z,2.77
2018-10-02T07:44:17.469Z,2.60
2018-10-02T07:46:45.092Z,2.47
2018-10-02T07:49:12.630Z,2.17
2018-10-02T07:51:40.074Z,2.50
2018-10-02T07:54:07.529Z,2.40
2018-10-02T07:56:35.150Z,2.27
2018-10-02T07:59:02.550Z,2.90
2018-10-02T08:01:30.007Z,2.47
2018-10-02T08:03:57.508Z,2.60
2018-10-02T08:06:25.002Z,2.20
2018-10-02T08:08:52.623Z,2.20
2018-10-02T08:11:20.055Z,2.50
2018-10-02T08:13:47.491Z,2.33
2018-10-02T08:16:15.085Z,2.43
2018-10-02T08:18:42.563Z,2.70
2018-10-02T08:21:10.216Z,2.30
2018-10-02T08:23:37.756Z,2.60
2018-10-02T08:26:05.274Z,2.60
2018-10-02T08:28:32.706Z,2.60
2018-10-02T08:31:00.286Z,2.57
2018-10-02T08:33:27.838Z,2.13
2018-10-02T08:35:55.479Z,2.93
2018-10-02T08:38:22.940Z,3.00
2018-10-02T08:40:50.519Z,2.53
2018-10-02T08:43:18.155Z,2.80
2018-10-02T08:45:45.646Z,2.60
2018-10-02T08:48:13.195Z,2.70
2018-10-02T08:50:40.884Z,2.60
2018-10-02T08:53:08.309Z,2.53
2018-10-02T08:55:35.817Z,2.30
2018-10-02T08:58:03.369Z,2.90
2018-10-02T09:00:30.924Z,2.27
2018-10-02T09:02:58.452Z,2.20
2018-10-02T09:05:26.102Z,2.60
2018-10-02T09:07:53.649Z,2.30
2018-10-02T09:10:21.095Z,2.47
2018-10-02T09:12:48.574Z,2.03
2018-10-02T09:15:16.063Z,1.83
2018-10-02T09:17:43.606Z,2.10
2018-10-02T09:20:11.122Z,1.90
2018-10-02T09:22:38.614Z,1.83
2018-10-02T09:25:06.281Z,1.80
2018-10-02T09:27:33.765Z,2.10
2018-10-02T09:30:06.989Z,1.90
2018-10-02T09:32:40.253Z,2.10
2018-10-02T09:35:13.193Z,2.30
2018-10-02T09:37:46.334Z,1.80
2018-10-02T09:40:19.606Z,1.60
2018-10-02T09:42:52.711Z,1.67
2018-10-02T09:45:20.146Z,1.70
2018-10-02T09:47:47.722Z,2.10
2018-10-02T09:50:15.234Z,1.90
2018-10-02T09:52:42.654Z,1.87
2018-10-02T09:55:10.174Z,1.90
2018-10-02T09:57:37.610Z,1.80
2018-10-02T10:00:07.173Z,1.83
2018-10-02T10:02:36.069Z,1.70
2018-10-02T10:05:03.542Z,2.00
2018-10-02T10:07:31.055Z,2.00
2018-10-02T10:09:58.501Z,1.73
2018-10-02T10:12:26.015Z,1.93
2018-10-02T10:14:53.538Z,2.00
2018-10-02T10:17:21.079Z,1.90
2018-10-02T10:19:48.626Z,1.90
2018-10-02T10:22:16.193Z,1.57
2018-10-02T10:24:43.636Z,1.60
2018-10-02T10:27:11.152Z,1.90
2018-10-02T10:29:39.122Z,2.07
2018-10-02T10:32:07.603Z,1.60
2018-10-02T10:34:35.090Z,2.20
2018-10-02T10:37:02.503Z,1.90
2018-10-02T10:39:29.994Z,1.67
2018-10-02T10:41:57.459Z,1.60
2018-10-02T10:44:24.954Z,1.53
2018-10-02T10:46:52.564Z,1.63
2018-10-02T10:49:20.034Z,1.40
2018-10-02T10:51:47.621Z,1.70
2018-10-02T10:54:15.081Z,1.40
2018-10-02T10:56:42.529Z,1.57
2018-10-02T10:59:10.062Z,1.60
2018-10-02T11:01:37.541Z,1.60
2018-10-02T11:04:05.110Z,1.47
2018-10-02T11:06:32.550Z,2.03
2018-10-02T11:08:59.994Z,1.70
2018-10-02T11:11:27.425Z,1.70
2018-10-02T11:13:54.970Z,1.60
2018-10-02T11:16:22.402Z,1.90
2018-10-02T11:18:50.010Z,1.60
2018-10-02T11:21:17.513Z,1.60
2018-10-02T11:23:45.152Z,1.80
2018-10-02T11:26:12.658Z,1.53
2018-10-02T11:28:40.113Z,1.90
2018-10-02T11:31:07.615Z,1.67
2018-10-02T11:33:35.131Z,1.63
2018-10-02T11:36:02.617Z,1.57
2018-10-02T11:38:30.137Z,1.60
2018-10-02T11:40:57.651Z,1.50
2018-10-02T11:43:25.168Z,1.63
2018-10-02T11:45:52.570Z,1.47
2018-10-02T11:48:19.999Z,1.37
2018-10-02T11:50:47.517Z,1.40
2018-10-02T11:53:15.046Z,1.30
2018-10-02T11:55:42.508Z,1.43
2018-10-02T11:58:10.047Z,1.40
2018-10-02T12:00:37.593Z,1.73
2018-10-02T12:03:05.116Z,1.20
2018-10-02T12:05:32.590Z,1.10
2018-10-02T12:08:00.123Z,1.50
2018-10-02T12:10:27.572Z,1.23
2018-10-02T12:12:55.062Z,1.40
2018-10-02T12:15:22.639Z,1.37
2018-10-02T12:17:50.147Z,1.40
2018-10-02T12:20:17.722Z,1.23
2018-10-02T12:22:45.182Z,1.30
2018-10-02T12:25:12.681Z,1.63
2018-10-02T12:27:40.110Z,1.20
2018-10-02T12:30:07.664Z,1.77
2018-10-02T12:32:35.203Z,1.17
2018-10-02T12:35:02.686Z,1.27
2018-10-02T12:37:30.146Z,1.30
2018-10-02T12:39:57.581Z,1.30
2018-10-02T12:42:25.035Z,1.50
2018-10-02T12:44:52.481Z,1.80
2018-10-02T12:47:19.982Z,1.37
2018-10-02T12:49:47.458Z,1.20
2018-10-02T12:52:15.097Z,1.40
2018-10-02T12:54:42.549Z,1.50
2018-10-02T12:57:10.010Z,1.20
2018-10-02T12:59:37.458Z,1.40
2018-10-02T13:02:04.931Z,1.43
2018-10-02T13:04:32.347Z,1.40
2018-10-02T13:06:59.902Z,1.20
2018-10-02T13:09:27.295Z,1.37
2018-10-02T13:11:54.747Z,1.30
2018-10-02T13:14:22.187Z,1.23
2018-10-02T13:16:49.654Z,1.40
2018-10-02T13:19:17.114Z,1.50
2018-10-02T13:21:44.561Z,1.20
2018-10-02T13:24:12.025Z,1.27
2018-10-02T13:26:39.485Z,1.60
2018-10-02T13:29:06.953Z,1.40
2018-10-02T13:31:34.378Z,1.60
2018-10-02T13:34:01.855Z,1.20
2018-10-02T13:36:29.286Z,1.30
2018-10-02T13:38:56.809Z,1.23
2018-10-02T13:41:24.214Z,1.30
2018-10-02T13:43:51.673Z,1.33
2018-10-02T13:46:19.120Z,1.50
2018-10-02T13:48:46.582Z,1.50
2018-10-02T13:51:14.053Z,1.50
2018-10-02T13:53:41.568Z,1.20
2018-10-02T13:56:09.045Z,1.47
2018-10-02T13:58:36.558Z,1.27
2018-10-02T14:01:04.193Z,1.70
2018-10-02T14:03:31.679Z,1.13
2018-10-02T14:05:59.242Z,1.33
2018-10-02T14:08:26.684Z,1.77
2018-10-02T14:10:54.186Z,1.60
2018-10-02T14:13:21.747Z,1.60
2018-10-02T14:15:49.246Z,1.33
2018-10-02T14:18:16.863Z,1.80
2018-10-02T14:20:44.392Z,1.47
2018-10-02T14:23:11.992Z,1.43
2018-10-02T14:25:39.563Z,1.70
2018-10-02T14:28:07.084Z,1.40
2018-10-02T14:30:34.670Z,1.87
2018-10-02T14:33:02.206Z,2.00
2018-10-02T14:35:29.797Z,1.70
2018-10-02T14:37:57.420Z,1.50
2018-10-02T14:40:24.945Z,1.70
2018-10-02T14:42:52.439Z,1.80
2018-10-02T14:45:19.900Z,1.70
2018-10-02T14:47:47.363Z,1.83
2018-10-02T14:50:14.853Z,1.70
2018-10-02T14:52:44.012Z,1.87
2018-10-02T14:55:11.442Z,1.70
2018-10-02T14:57:38.918Z,1.87
2018-10-02T15:00:06.690Z,1.60
2018-10-02T15:02:34.187Z,2.00
2018-10-02T15:05:01.654Z,1.83
2018-10-02T15:07:29.090Z,1.90
2018-10-02T15:09:56.532Z,2.10
2018-10-02T15:12:23.986Z,1.90
2018-10-02T15:14:51.438Z,2.53
2018-10-02T15:17:18.854Z,1.73
2018-10-02T15:19:46.305Z,2.20
2018-10-02T15:22:13.752Z,2.03
2018-10-02T15:24:41.202Z,2.40
2018-10-02T15:27:08.654Z,1.60
2018-10-02T15:29:36.122Z,1.63
2018-10-02T15:32:03.609Z,1.87
2018-10-02T15:34:31.032Z,1.90
2018-10-02T15:36:58.451Z,1.73
2018-10-02T15:39:25.939Z,2.00
2018-10-02T15:41:53.379Z,1.83
2018-10-02T15:44:21.006Z,1.70
2018-10-02T15:46:48.446Z,2.10
2018-10-02T15:49:15.901Z,2.00
2018-10-02T15:51:43.654Z,1.67
2018-10-02T15:54:11.121Z,1.90
2018-10-02T15:56:38.703Z,1.87
2018-10-02T15:59:06.284Z,1.70
2018-10-02T16:01:33.745Z,1.60
2018-10-02T16:04:01.233Z,1.90
2018-10-02T16:06:29.197Z,1.67
2018-10-02T16:08:56.869Z,1.60
2018-10-02T16:11:24.471Z,1.93
2018-10-02T16:13:51.977Z,1.57
2018-10-02T16:16:19.571Z,1.40
2018-10-02T16:18:47.060Z,1.70
2018-10-02T16:21:14.621Z,1.50
2018-10-02T16:23:42.270Z,1.70
2018-10-02T16:26:09.927Z,1.60
2018-10-02T16:28:37.546Z,1.90
2018-10-02T16:31:05.474Z,1.80
2018-10-02T16:33:32.971Z,1.70
2018-10-02T16:36:00.546Z,1.47
2018-10-02T16:38:27.994Z,1.70
2018-10-02T16:40:55.844Z,1.70
2018-10-02T16:43:23.298Z,1.50
2018-10-02T16:45:56.187Z,1.60
2018-10-02T16:48:23.680Z,1.83
2018-10-02T16:50:51.178Z,1.50
2018-10-02T16:53:18.687Z,1.50
2018-10-02T16:55:46.185Z,1.63
2018-10-02T16:58:13.817Z,1.70
2018-10-02T17:00:41.269Z,2.10
2018-10-02T17:03:08.710Z,1.50
2018-10-02T17:05:36.205Z,1.47
2018-10-02T17:08:03.678Z,1.23
2018-10-02T17:10:31.149Z,1.80
2018-10-02T17:12:58.581Z,1.50
2018-10-02T17:15:26.040Z,1.80
2018-10-02T17:17:53.479Z,1.50
2018-10-02T17:20:20.941Z,1.30
2018-10-02T17:22:48.396Z,1.63
2018-10-02T17:25:15.898Z,1.70
2018-10-02T17:27:43.322Z,1.80
2018-10-02T17:30:10.786Z,1.47
2018-10-02T17:32:38.264Z,1.40
2018-10-02T17:35:05.854Z,1.50
2018-10-02T17:37:33.386Z,1.60
2018-10-02T17:40:00.847Z,1.60
2018-10-02T17:42:28.349Z,1.70
2018-10-02T17:44:55.827Z,1.63
2018-10-02T17:47:23.369Z,1.60
2018-10-02T17:49:50.826Z,1.30
2018-10-02T17:52:18.535Z,5.80
2018-10-02T17:54:46.097Z,1.70
2018-10-02T17:57:13.534Z,1.60
2018-10-02T17:59:41.047Z,1.37
2018-10-02T18:02:08.447Z,1.40
2018-10-02T18:04:35.868Z,1.43
2018-10-02T18:07:03.374Z,2.70
2018-10-02T18:09:31.522Z,1.60
2018-10-02T18:11:59.023Z,1.70
2018-10-02T18:14:26.495Z,1.50
2018-10-02T18:16:53.989Z,1.50
2018-10-02T18:19:21.497Z,1.60
2018-10-02T18:21:49.090Z,1.60
2018-10-02T18:24:16.678Z,1.57
2018-10-02T18:26:44.266Z,1.60
2018-10-02T18:29:11.995Z,1.57
2018-10-02T18:31:39.526Z,1.60
2018-10-02T18:34:07.091Z,1.83
2018-10-02T18:36:34.571Z,1.50
2018-10-02T18:39:02.265Z,1.40
2018-10-02T18:41:29.745Z,1.60
2018-10-02T18:43:57.318Z,1.57
2018-10-02T18:46:24.781Z,1.80
2018-10-02T18:48:52.375Z,1.73
2018-10-02T18:51:19.807Z,1.40
2018-10-02T18:53:47.467Z,1.63
2018-10-02T18:56:15.161Z,1.80
2018-10-02T18:58:42.557Z,1.40
2018-10-02T19:01:10.047Z,1.80
2018-10-02T19:03:37.566Z,2.13
2018-10-02T19:06:05.063Z,1.60
2018-10-02T19:08:38.279Z,1.63
2018-10-02T19:11:11.535Z,1.63
2018-10-02T19:13:39.133Z,1.60
2018-10-02T19:16:12.291Z,1.60
2018-10-02T19:18:39.840Z,1.63
2018-10-02T19:21:07.323Z,1.50
2018-10-02T19:23:34.933Z,1.53
2018-10-02T19:26:05.774Z,1.73
2018-10-02T19:28:33.424Z,2.03
2018-10-02T19:31:06.609Z,1.77
2018-10-02T19:33:34.200Z,1.67
2018-10-02T19:36:01.921Z,1.67
2018-10-02T19:38:34.987Z,1.80
2018-10-02T19:41:02.665Z,1.60
2018-10-02T19:43:30.252Z,1.50
2018-10-02T19:46:03.508Z,1.43
2018-10-02T19:48:31.029Z,1.97
2018-10-02T19:51:04.269Z,1.60
2018-10-02T19:53:31.743Z,1.80
2018-10-02T19:55:59.251Z,1.63
2018-10-02T19:58:26.749Z,1.80
2018-10-02T20:00:54.221Z,1.73
2018-10-02T20:03:21.726Z,1.70
2018-10-02T20:05:49.241Z,1.53
2018-10-02T20:08:16.721Z,1.80
2018-10-02T20:10:44.234Z,1.90
2018-10-02T20:13:11.759Z,1.60
2018-10-02T20:15:39.267Z,1.50
2018-10-02T20:18:06.703Z,1.80
2018-10-02T20:20:34.206Z,1.70
2018-10-02T20:23:01.699Z,1.70
2018-10-02T20:25:29.159Z,1.70
2018-10-02T20:27:56.627Z,1.70
2018-10-02T20:30:24.280Z,1.60
2018-10-02T20:32:51.779Z,1.60
2018-10-02T20:37:43.674Z,1.50
2018-10-02T20:40:11.169Z,1.70
2018-10-02T20:42:38.764Z,1.70
2018-10-02T20:45:06.535Z,1.70
2018-10-02T20:47:34.066Z,1.93
2018-10-02T20:50:01.554Z,1.90
2018-10-02T20:52:29.031Z,1.87
2018-10-02T20:54:56.521Z,1.80
2018-10-02T20:57:24.040Z,1.87
2018-10-02T20:59:51.541Z,1.93
2018-10-02T21:02:19.013Z,1.90
2018-10-02T21:04:46.532Z,1.73
2018-10-02T21:07:14.082Z,1.90
2018-10-02T21:09:41.527Z,2.03
2018-10-02T21:12:09.216Z,1.90
2018-10-02T21:14:36.702Z,1.83
2018-10-02T21:17:04.190Z,1.90
2018-10-02T21:19:31.718Z,2.60
2018-10-02T21:21:59.226Z,1.87
2018-10-02T21:24:26.706Z,1.97
2018-10-02T21:26:54.188Z,2.23
2018-10-02T21:29:21.678Z,2.03
2018-10-02T21:31:49.178Z,2.27
2018-10-02T21:34:16.630Z,1.93
2018-10-02T21:36:44.124Z,1.80
2018-10-02T21:39:11.611Z,2.07
2018-10-02T21:41:39.115Z,2.03
2018-10-02T21:44:06.883Z,2.10
2018-10-02T21:46:34.421Z,1.70
2018-10-02T21:49:01.897Z,2.30
2018-10-02T21:51:29.386Z,2.17
2018-10-02T21:53:56.849Z,1.87
2018-10-02T21:56:24.321Z,2.37
2018-10-02T21:58:51.802Z,2.20
2018-10-02T22:01:19.313Z,2.20
2018-10-02T22:03:47.026Z,2.00
2018-10-02T22:06:14.480Z,2.40
2018-10-02T22:08:41.967Z,1.97
2018-10-02T22:11:09.518Z,2.40
2018-10-02T22:13:37.002Z,2.10
2018-10-02T22:16:04.478Z,2.03
2018-10-02T22:18:31.945Z,2.30
2018-10-02T22:20:59.438Z,2.30
2018-10-02T22:23:26.935Z,2.10
2018-10-02T22:25:54.430Z,1.57
2018-10-02T22:28:21.910Z,2.10
2018-10-02T22:30:49.372Z,2.17
2018-10-02T22:33:16.926Z,3.10
2018-10-02T22:35:44.301Z,2.10
2018-10-02T22:38:11.738Z,2.00
2018-10-02T22:40:39.181Z,2.10
2018-10-02T22:43:06.626Z,2.20
2018-10-02T22:45:34.099Z,2.10
2018-10-02T22:48:01.565Z,1.83
2018-10-02T22:50:29.856Z,1.60
2018-10-02T22:52:57.294Z,2.20
2018-10-02T22:55:24.758Z,2.80
2018-10-02T22:57:52.221Z,2.03
2018-10-02T23:00:19.678Z,2.27
2018-10-02T23:02:47.116Z,2.00
2018-10-02T23:05:14.558Z,1.80
2018-10-02T23:07:41.974Z,1.93
2018-10-02T23:10:09.468Z,2.10
2018-10-02T23:12:36.898Z,2.07
2018-10-02T23:15:04.424Z,1.90
2018-10-02T23:17:31.874Z,1.90
2018-10-02T23:19:59.393Z,1.90
2018-10-02T23:22:26.846Z,1.70
2018-10-02T23:24:54.309Z,2.10
2018-10-02T23:27:21.759Z,1.90
2018-10-02T23:29:49.211Z,2.10
2018-10-02T23:32:17.177Z,2.10
2018-10-02T23:34:44.629Z,1.50
2018-10-02T23:37:12.138Z,1.80
2018-10-02T23:39:39.562Z,1.73
2018-10-02T23:42:07.001Z,2.00
2018-10-02T23:44:34.438Z,1.90
2018-10-02T23:47:01.894Z,1.60
2018-10-02T23:49:29.358Z,1.80
2018-10-02T23:51:56.831Z,1.73
2018-10-02T23:54:24.288Z,1.77
2018-10-02T23:56:51.744Z,1.70
2018-10-02T23:59:19.262Z,2.07
